Terminal Aerodrome Forecast
Issued by NWS Cleveland, OH

Home | Current Version | Previous Version | Text Only | Print | Product List | Glossary Off
Versions: 1 2 3 4 5 6 7 8 9 10 11 12 13 14

000
FTUS41 KCLE 231100
TAFTOL
TAF
KTOL 231138Z 2312/2412 32010KT P6SM OVC015
     FM231500 35010KT P6SM BKN020
     FM231800 01010KT P6SM BKN040
     FM232200 01008KT P6SM SCT050
     FM240300 01006KT P6SM SKC=

USA.gov is the U.S. government's official web portal to all federal, state and local government web resources and services.